Edison, Washington
Current Conditions -  °F | °C
As of 8:53 AM on Saturday 25 Oct 2014 (Local Time) from KBLI Reporting Station
Light Rain Light Rain  
Wind Chill: 50°   Ceiling: 7000
Heat Index: 50°   Visibility: 10mi
Dew Point: 46°   Wind: 0mph
Humidity: 86%   Direction: NA
Pressure: 29.52"   Gusts: NA
Location:  48.5689°N, 122.407°W
Report Text: KBLI 251553Z 00000KT 10SM -RA FEW055 BKN070 OVC085 10/08 A2952 RMK AO2 RAB25 SLP004 P0001 T01000078
Loading
Personal Weather Stations






























Interactive Weather Map
Tropical Storm Tracking
New forecast layout! Learn more

10-Day Weather Forecast

Advertisements
Track Severe Weather on mobile